Time;durP1;ratioP1;P1;durP2;ratioP2;P2;SDS_P1;SDS_P2;PMS_P1;PMS_P2;Temp;Humidity;BMP_temperature;BMP_pressure;BME280_temperature;BME280_humidity;BME280_pressure;Samples;Min_cycle;Max_cycle;Signal;HPM_P1;HPM_P2
2022/08/15 00:02:00;;;;;;;3.92;2.95;;;24.80;99.90;;;;;;5094227;28;20248;-45
2022/08/15 00:04:27;;;;;;;5.13;2.72;;;24.80;99.90;;;;;;5094379;28;20201;-43
2022/08/15 00:06:53;;;;;;;5.10;3.25;;;24.80;99.90;;;;;;5093607;28;20174;-43
2022/08/15 00:09:22;;;;;;;4.63;2.90;;;24.80;99.90;;;;;;5094268;28;20176;-42
2022/08/15 00:11:53;;;;;;;8.10;2.97;;;24.80;99.90;;;;;;5094133;28;20164;-43
2022/08/15 00:14:24;;;;;;;4.68;3.00;;;24.80;99.90;;;;;;5093950;28;20719;-43
2022/08/15 00:16:50;;;;;;;4.63;2.80;;;24.80;99.90;;;;;;5094055;28;20235;-44
2022/08/15 00:19:19;;;;;;;3.45;2.70;;;24.80;99.90;;;;;;5094296;28;20629;-43
2022/08/15 00:21:48;;;;;;;3.20;2.40;;;24.80;99.90;;;;;;5093955;28;20184;-50
2022/08/15 00:24:18;;;;;;;3.38;2.17;;;24.80;99.90;;;;;;5093983;28;20252;-53
2022/08/15 00:26:45;;;;;;;2.92;2.55;;;24.80;99.90;;;;;;5093911;28;20638;-52
2022/08/15 00:29:12;;;;;;;3.17;2.42;;;24.80;99.90;;;;;;5094141;28;20165;-52
2022/08/15 00:31:39;;;;;;;6.15;2.40;;;24.80;99.90;;;;;;5093705;28;20195;-43
2022/08/15 00:34:05;;;;;;;2.25;2.00;;;24.80;99.90;;;;;;5093923;28;20201;-52
2022/08/15 00:36:30;;;;;;;2.95;2.60;;;24.80;99.90;;;;;;5094271;28;20273;-52
2022/08/15 00:38:58;;;;;;;3.38;2.20;;;24.80;99.90;;;;;;5093667;28;20162;-52
2022/08/15 00:41:39;;;;;;;5.05;2.50;;;24.70;99.90;;;;;;5093657;28;20157;-53
2022/08/15 00:44:10;;;;;;;3.92;2.15;;;24.70;99.90;;;;;;5093399;28;20168;-53
2022/08/15 00:46:38;;;;;;;3.15;2.35;;;24.70;99.90;;;;;;5093456;28;20161;-53
2022/08/15 00:49:05;;;;;;;2.17;1.98;;;24.70;99.90;;;;;;5093742;28;20172;-53
2022/08/15 00:51:38;;;;;;;3.15;2.17;;;24.70;99.90;;;;;;5093758;28;20165;-53
2022/08/15 00:54:10;;;;;;;13.30;2.85;;;24.70;99.90;;;;;;5092883;28;20209;-46
2022/08/15 00:56:43;;;;;;;7.18;2.25;;;24.70;99.90;;;;;;5093441;28;20252;-45
2022/08/15 00:59:12;;;;;;;2.78;2.40;;;24.60;99.90;;;;;;5093359;28;20691;-46
2022/08/15 01:01:38;;;;;;;5.72;2.30;;;24.60;99.90;;;;;;5092869;28;20176;-48
2022/08/15 01:04:08;;;;;;;6.10;1.95;;;24.70;99.90;;;;;;5092923;28;20158;-43
2022/08/15 01:06:37;;;;;;;3.83;2.33;;;24.60;99.90;;;;;;5075068;28;20207;-43
2022/08/15 01:09:07;;;;;;;3.42;2.30;;;24.70;99.90;;;;;;5093603;28;20173;-43
2022/08/15 01:11:49;;;;;;;2.30;2.05;;;24.70;99.90;;;;;;5093261;28;20248;-43
2022/08/15 01:14:15;;;;;;;4.72;2.28;;;24.60;99.90;;;;;;5092746;28;20595;-42
2022/08/15 01:16:40;;;;;;;3.42;2.17;;;24.70;99.90;;;;;;5092828;28;20172;-46
2022/08/15 01:19:13;;;;;;;4.53;2.33;;;24.70;99.90;;;;;;5092013;28;20215;-43
2022/08/15 01:22:10;;;;;;;3.05;2.20;;;24.60;99.90;;;;;;5092829;28;20210;-43
2022/08/15 01:24:51;;;;;;;4.78;2.15;;;24.60;99.90;;;;;;5092729;28;20157;-43
2022/08/15 01:27:19;;;;;;;3.67;2.33;;;24.60;99.90;;;;;;5092988;28;20252;-42
2022/08/15 01:29:46;;;;;;;4.43;2.53;;;24.60;99.90;;;;;;5092519;28;20299;-43
2022/08/15 01:32:13;;;;;;;3.75;2.35;;;24.60;99.90;;;;;;5092522;28;20683;-43
2022/08/15 01:34:38;;;;;;;4.82;2.30;;;24.50;99.90;;;;;;5092742;28;20239;-43
2022/08/15 01:37:04;;;;;;;3.45;2.70;;;24.50;99.90;;;;;;5092543;28;20629;-43
2022/08/15 01:39:49;;;;;;;4.00;2.42;;;24.50;99.90;;;;;;5092907;28;20244;-42
2022/08/15 01:42:21;;;;;;;3.60;2.28;;;24.50;99.90;;;;;;5092422;28;20264;-42
2022/08/15 01:45:15;;;;;;;4.40;2.28;;;24.50;99.90;;;;;;5092449;28;20652;-43
2022/08/15 01:48:02;;;;;;;4.28;2.78;;;24.50;99.90;;;;;;5089811;28;20246;-43
2022/08/15 01:50:46;;;;;;;3.67;2.60;;;24.40;99.90;;;;;;5092276;28;20165;-42
2022/08/15 01:53:27;;;;;;;2.80;2.20;;;24.40;99.90;;;;;;5092170;28;20230;-42
2022/08/15 01:56:03;;;;;;;5.30;1.80;;;24.40;99.90;;;;;;5092405;28;20169;-42
2022/08/15 01:58:30;;;;;;;5.93;2.15;;;24.40;99.90;;;;;;5092740;28;20165;-42
2022/08/15 02:01:00;;;;;;;5.95;2.20;;;24.40;99.90;;;;;;5092159;28;20173;-52
2022/08/15 02:03:36;;;;;;;4.25;2.35;;;24.30;99.90;;;;;;5092358;28;20239;-50
2022/08/15 02:06:09;;;;;;;3.95;2.50;;;24.30;99.90;;;;;;5092643;28;20535;-52
2022/08/15 02:08:36;;;;;;;2.42;1.90;;;24.30;99.90;;;;;;5092314;28;20532;-52
2022/08/15 02:11:05;;;;;;;3.63;2.30;;;24.40;99.90;;;;;;5092325;28;20170;-52
2022/08/15 02:13:31;;;;;;;5.22;2.53;;;24.30;99.90;;;;;;5092124;28;20224;-53
2022/08/15 02:15:57;;;;;;;2.30;1.98;;;24.30;99.90;;;;;;5092004;28;20227;-53
2022/08/15 02:18:22;;;;;;;3.00;1.90;;;24.30;99.90;;;;;;5091925;28;20172;-53
2022/08/15 02:20:48;;;;;;;3.50;2.13;;;24.30;99.90;;;;;;5091868;28;20191;-43
2022/08/15 02:23:14;;;;;;;2.58;2.08;;;24.10;99.90;;;;;;5092163;28;20197;-49
2022/08/15 02:25:40;;;;;;;2.70;1.90;;;24.20;99.90;;;;;;5091935;28;20523;-46
2022/08/15 02:28:05;;;;;;;2.28;2.13;;;24.20;99.90;;;;;;5091864;28;20177;-46
2022/08/15 02:30:33;;;;;;;4.03;2.30;;;24.10;99.90;;;;;;5095282;28;20200;-49
2022/08/15 02:32:59;;;;;;;3.30;2.30;;;24.10;99.90;;;;;;5096378;28;20236;-48
2022/08/15 02:35:26;;;;;;;2.80;1.90;;;24.10;99.90;;;;;;5096283;28;20169;-49
2022/08/15 02:37:51;;;;;;;2.58;2.20;;;24.10;99.90;;;;;;5095915;28;20633;-43
2022/08/15 02:40:19;;;;;;;2.83;2.00;;;24.00;99.90;;;;;;5096161;28;20208;-47
2022/08/15 02:42:46;;;;;;;3.65;2.45;;;24.00;99.90;;;;;;5096085;28;20177;-43
2022/08/15 02:45:13;;;;;;;3.83;2.35;;;24.10;99.90;;;;;;5077592;28;20256;-47
2022/08/15 02:47:41;;;;;;;2.67;2.10;;;24.00;99.90;;;;;;5078100;28;20515;-46
2022/08/15 02:50:07;;;;;;;2.38;2.17;;;24.00;99.90;;;;;;5095413;28;20252;-43
2022/08/15 02:52:41;;;;;;;2.42;1.98;;;24.10;99.90;;;;;;5095519;28;20193;-43
2022/08/15 02:55:10;;;;;;;4.32;1.80;;;24.00;99.90;;;;;;5095534;28;20166;-42
2022/08/15 02:57:36;;;;;;;4.28;2.15;;;24.00;99.90;;;;;;5095644;28;20165;-44
2022/08/15 03:00:15;;;;;;;5.60;2.20;;;24.00;99.90;;;;;;5095927;28;20169;-45
2022/08/15 03:02:55;;;;;;;3.90;2.30;;;24.10;99.90;;;;;;5095719;28;20173;-48
2022/08/15 03:05:27;;;;;;;1.83;1.70;;;24.10;99.90;;;;;;5095472;28;20166;-46
2022/08/15 03:07:53;;;;;;;2.55;2.33;;;24.10;99.90;;;;;;5095664;28;20618;-52
2022/08/15 03:10:19;;;;;;;2.60;2.03;;;24.10;99.90;;;;;;5095354;28;20170;-46
2022/08/15 03:12:54;;;;;;;3.58;2.13;;;24.10;99.90;;;;;;5095043;28;20246;-43
2022/08/15 03:15:25;;;;;;;3.67;2.10;;;24.10;99.90;;;;;;5095590;28;20173;-44
2022/08/15 03:17:51;;;;;;;3.70;2.30;;;24.10;99.90;;;;;;5094832;28;20165;-45
2022/08/15 03:20:19;;;;;;;2.45;1.98;;;24.10;99.90;;;;;;5095459;28;20536;-45
2022/08/15 03:22:47;;;;;;;3.35;1.90;;;24.10;99.90;;;;;;5095386;28;20173;-49
2022/08/15 03:25:13;;;;;;;4.43;2.20;;;24.00;99.90;;;;;;5094994;28;20174;-51
2022/08/15 03:27:41;;;;;;;4.82;2.25;;;24.00;99.90;;;;;;5094980;28;20168;-52
2022/08/15 03:30:10;;;;;;;2.25;1.90;;;24.00;99.90;;;;;;5077411;28;20173;-43
2022/08/15 03:32:48;;;;;;;3.17;2.30;;;23.90;99.90;;;;;;5094684;28;20200;-43
2022/08/15 03:35:15;;;;;;;3.00;2.10;;;23.90;99.90;;;;;;5094584;28;20176;-50
2022/08/15 03:37:40;;;;;;;6.38;2.38;;;23.90;99.90;;;;;;5094775;28;20196;-49
2022/08/15 03:40:07;;;;;;;3.55;2.40;;;23.90;99.90;;;;;;5094847;28;20589;-51
2022/08/15 03:42:33;;;;;;;3.45;2.25;;;23.90;99.90;;;;;;5093796;28;20586;-47
2022/08/15 03:45:02;;;;;;;2.47;2.00;;;23.90;99.90;;;;;;5094992;28;20193;-47
2022/08/15 03:47:29;;;;;;;2.70;2.28;;;23.80;99.90;;;;;;5095154;28;20188;-51
2022/08/15 03:49:55;;;;;;;4.85;2.17;;;23.80;99.90;;;;;;5094455;28;20157;-43
2022/08/15 03:52:21;;;;;;;3.65;2.00;;;23.80;99.90;;;;;;5094293;28;20668;-42
2022/08/15 03:54:46;;;;;;;3.13;1.73;;;23.80;99.90;;;;;;5094308;28;20176;-44
2022/08/15 03:57:12;;;;;;;5.97;2.20;;;23.70;99.90;;;;;;5094470;28;20161;-43
2022/08/15 03:59:38;;;;;;;2.60;2.20;;;23.70;99.90;;;;;;5094546;28;20177;-46
2022/08/15 04:02:08;;;;;;;3.63;2.08;;;23.70;99.90;;;;;;5094266;28;20180;-50
2022/08/15 04:04:34;;;;;;;3.83;2.17;;;23.70;99.90;;;;;;5094305;28;20191;-43
2022/08/15 04:06:59;;;;;;;3.67;2.10;;;23.70;99.90;;;;;;5094512;28;20165;-49
2022/08/15 04:09:25;;;;;;;2.47;1.83;;;23.70;99.90;;;;;;5094088;28;20188;-51
2022/08/15 04:11:50;;;;;;;2.58;2.25;;;23.70;99.90;;;;;;5094287;28;20533;-42
2022/08/15 04:14:16;;;;;;;3.28;2.17;;;23.70;99.90;;;;;;5093981;28;20225;-50
2022/08/15 04:16:42;;;;;;;3.17;2.17;;;23.70;99.90;;;;;;5094055;28;20157;-42
2022/08/15 04:19:07;;;;;;;3.78;2.40;;;23.70;99.90;;;;;;5093965;28;20625;-43
2022/08/15 04:21:33;;;;;;;4.25;2.53;;;23.70;99.90;;;;;;5093530;28;20188;-49
2022/08/15 04:23:59;;;;;;;2.63;1.65;;;23.60;99.90;;;;;;5094537;28;20248;-47
2022/08/15 04:26:25;;;;;;;2.30;1.83;;;23.70;99.90;;;;;;5094154;28;20234;-46
2022/08/15 04:28:50;;;;;;;2.75;2.13;;;23.70;99.90;;;;;;5093326;28;20166;-43
2022/08/15 04:31:19;;;;;;;4.00;2.40;;;23.60;99.90;;;;;;5093440;28;20170;-44
2022/08/15 04:33:45;;;;;;;3.88;2.22;;;23.60;99.90;;;;;;5093592;28;20201;-43
2022/08/15 04:36:14;;;;;;;3.13;2.50;;;23.60;99.90;;;;;;5093972;28;20501;-45
2022/08/15 04:38:42;;;;;;;2.75;2.13;;;23.60;99.90;;;;;;5093026;28;20174;-42
2022/08/15 04:41:09;;;;;;;2.80;2.47;;;23.50;99.90;;;;;;5093564;28;20185;-42
2022/08/15 04:43:37;;;;;;;4.78;2.05;;;23.50;99.90;;;;;;5093108;28;20248;-42
2022/08/15 04:46:03;;;;;;;3.67;1.98;;;23.50;99.90;;;;;;5093517;28;20161;-42
2022/08/15 04:48:30;;;;;;;2.78;1.90;;;23.50;99.90;;;;;;5093964;28;20165;-44
2022/08/15 04:50:57;;;;;;;2.75;2.00;;;23.50;99.90;;;;;;5093609;28;20180;-44
2022/08/15 04:53:26;;;;;;;4.03;2.88;;;23.50;99.90;;;;;;5093261;28;20236;-42
2022/08/15 04:55:53;;;;;;;3.05;1.98;;;23.50;99.90;;;;;;5093233;28;20254;-45
2022/08/15 04:58:19;;;;;;;2.67;2.10;;;23.50;99.90;;;;;;5093225;28;20692;-49
2022/08/15 05:00:55;;;;;;;2.80;2.35;;;23.50;99.90;;;;;;5093133;28;20197;-46
2022/08/15 05:03:21;;;;;;;3.50;2.20;;;23.50;99.90;;;;;;5093443;28;20165;-46
2022/08/15 05:05:53;;;;;;;4.65;2.50;;;23.50;99.90;;;;;;5093097;28;20638;-43
2022/08/15 05:08:21;;;;;;;10.85;2.58;;;23.50;99.90;;;;;;5093268;28;20704;-43
2022/08/15 05:10:54;;;;;;;8.50;2.80;;;23.40;99.90;;;;;;5093281;28;20269;-42
2022/08/15 05:13:22;;;;;;;5.53;2.60;;;23.40;99.90;;;;;;5092383;28;20703;-42
2022/08/15 05:15:48;;;;;;;2.83;2.30;;;23.50;99.90;;;;;;5092763;28;20169;-52
2022/08/15 05:18:14;;;;;;;4.60;2.10;;;23.50;99.90;;;;;;5092944;28;20616;-52
2022/08/15 05:20:41;;;;;;;3.60;2.15;;;23.50;99.90;;;;;;5092927;28;20222;-52
2022/08/15 05:23:10;;;;;;;7.32;2.75;;;23.50;99.90;;;;;;5092645;28;20648;-52
2022/08/15 05:25:45;;;;;;;2.50;2.00;;;23.60;99.90;;;;;;5092603;28;20523;-50
2022/08/15 05:28:12;;;;;;;9.23;2.40;;;23.60;99.90;;;;;;5092929;28;20180;-52
2022/08/15 05:30:38;;;;;;;2.67;2.08;;;23.60;99.90;;;;;;5092770;28;20165;-52
2022/08/15 05:33:14;;;;;;;3.83;2.30;;;23.70;99.90;;;;;;5092502;28;20552;-51
2022/08/15 05:35:43;;;;;;;4.70;2.70;;;23.70;99.90;;;;;;5092449;28;20169;-52
2022/08/15 05:38:21;;;;;;;8.73;2.50;;;23.70;99.90;;;;;;5092412;28;20268;-51
2022/08/15 05:41:09;;;;;;;6.47;2.55;;;23.70;99.90;;;;;;5092377;28;20172;-51
2022/08/15 05:44:02;;;;;;;4.15;2.28;;;23.80;99.90;;;;;;5092564;28;20170;-51
2022/08/15 05:46:46;;;;;;;5.55;2.17;;;23.80;99.90;;;;;;5092488;28;20694;-52
2022/08/15 05:49:23;;;;;;;2.97;2.53;;;23.90;99.90;;;;;;5092513;28;20169;-47
2022/08/15 05:52:24;;;;;;;2.78;2.33;;;23.80;99.90;;;;;;5092545;28;20169;-46
2022/08/15 05:55:11;;;;;;;6.40;2.63;;;23.90;99.90;;;;;;5054638;28;20189;-52
2022/08/15 05:57:39;;;;;;;8.65;2.72;;;23.90;99.90;;;;;;5092228;28;20157;-52
2022/08/15 06:00:10;;;;;;;6.75;2.22;;;23.80;99.90;;;;;;5092303;28;20165;-49
2022/08/15 06:03:03;;;;;;;8.82;2.40;;;23.80;99.90;;;;;;5092139;28;20630;-47
2022/08/15 06:05:35;;;;;;;3.50;2.50;;;23.80;99.90;;;;;;5092178;28;20180;-49
2022/08/15 06:08:08;;;;;;;15.48;3.42;;;23.90;99.90;;;;;;5092375;28;20571;-51
2022/08/15 06:10:51;;;;;;;4.40;2.10;;;24.00;99.90;;;;;;5091973;28;20165;-51
2022/08/15 06:13:27;;;;;;;3.22;2.15;;;24.00;99.90;;;;;;5091794;28;20209;-51
2022/08/15 06:16:23;;;;;;;2.50;2.20;;;24.10;99.90;;;;;;5092252;28;20237;-52
2022/08/15 06:18:49;;;;;;;3.40;2.10;;;24.10;99.90;;;;;;5087904;28;20182;-51
2022/08/15 06:21:39;;;;;;;5.35;2.30;;;24.10;99.90;;;;;;5091863;28;20582;-51
2022/08/15 06:24:23;;;;;;;5.18;2.25;;;24.10;99.90;;;;;;5091910;28;20169;-51
2022/08/15 06:26:52;;;;;;;4.05;2.20;;;24.20;99.90;;;;;;5092076;28;20171;-50
2022/08/15 06:29:40;;;;;;;3.55;2.42;;;24.10;99.90;;;;;;5091899;28;20693;-43
2022/08/15 06:32:16;;;;;;;4.60;2.50;;;24.20;99.90;;;;;;5091648;28;20493;-42
2022/08/15 06:35:06;;;;;;;4.82;2.20;;;24.20;99.90;;;;;;5073661;28;20693;-42
2022/08/15 06:37:52;;;;;;;3.20;2.45;;;24.20;99.90;;;;;;5091869;28;20176;-43
2022/08/15 06:40:52;;;;;;;5.70;2.20;;;24.30;99.90;;;;;;5091410;28;20177;-43
2022/08/15 06:43:17;;;;;;;6.22;2.00;;;24.30;99.90;;;;;;5080707;28;20189;-43
2022/08/15 06:45:47;;;;;;;3.53;2.25;;;24.30;99.90;;;;;;5091924;28;20708;-43
2022/08/15 06:48:17;;;;;;;4.20;2.50;;;24.20;99.90;;;;;;5091694;28;20204;-42
2022/08/15 06:50:48;;;;;;;7.15;2.60;;;24.10;99.90;;;;;;5091741;28;20204;-42
2022/08/15 06:53:35;;;;;;;3.35;2.25;;;24.10;99.90;;;;;;5091552;28;20200;-43
2022/08/15 06:56:16;;;;;;;2.63;2.40;;;24.00;99.90;;;;;;5091975;28;20172;-43
2022/08/15 06:59:21;;;;;;;3.40;2.28;;;24.00;99.90;;;;;;5091563;28;20161;-43
2022/08/15 07:02:09;;;;;;;5.88;2.38;;;24.00;99.90;;;;;;5091867;28;20173;-43
2022/08/15 07:05:04;;;;;;;3.55;2.33;;;24.00;99.90;;;;;;5091753;28;20193;-43
2022/08/15 07:07:42;;;;;;;3.75;2.38;;;24.10;99.90;;;;;;5091877;28;20181;-42
2022/08/15 07:10:32;;;;;;;7.05;2.70;;;24.10;99.90;;;;;;5091575;28;20537;-42
2022/08/15 07:13:02;;;;;;;10.43;2.40;;;24.10;99.90;;;;;;5052128;28;20328;-44
2022/08/15 07:15:40;;;;;;;4.30;3.08;;;24.00;99.90;;;;;;5092989;28;20629;-43
2022/08/15 07:18:28;;;;;;;3.47;2.65;;;24.10;99.90;;;;;;5095266;28;20244;-43
2022/08/15 07:21:07;;;;;;;5.65;2.58;;;24.10;99.90;;;;;;5095224;28;20163;-43
2022/08/15 07:23:35;;;;;;;3.00;2.47;;;24.20;99.90;;;;;;5095188;28;20161;-47
2022/08/15 07:26:11;;;;;;;3.67;2.25;;;24.10;99.90;;;;;;5108473;28;20669;-43
2022/08/15 07:28:41;;;;;;;3.50;2.50;;;24.20;99.90;;;;;;5115229;28;20702;-43
2022/08/15 07:31:19;;;;;;;4.40;2.55;;;24.30;99.90;;;;;;5115146;28;20180;-43
2022/08/15 07:33:50;;;;;;;3.65;2.50;;;24.40;99.90;;;;;;5114733;28;20555;-44
2022/08/15 07:36:24;;;;;;;4.78;2.90;;;24.50;99.90;;;;;;5127845;27;20178;-43
2022/08/15 07:38:51;;;;;;;3.53;2.72;;;24.60;99.90;;;;;;5134657;27;20642;-43
2022/08/15 07:41:32;;;;;;;3.42;2.40;;;24.60;99.90;;;;;;5134335;27;20179;-44
2022/08/15 07:44:15;;;;;;;4.22;2.58;;;24.60;99.90;;;;;;5116839;27;20221;-41
2022/08/15 07:46:48;;;;;;;4.70;2.40;;;24.70;99.90;;;;;;5134279;27;20175;-41
2022/08/15 07:49:27;;;;;;;3.97;2.58;;;24.90;99.90;;;;;;5134134;27;20160;-42
2022/08/15 07:52:06;;;;;;;5.13;2.42;;;24.90;99.90;;;;;;5101993;28;20264;-40
2022/08/15 07:54:38;;;;;;;5.32;2.83;;;24.80;99.90;;;;;;5093406;28;20180;-46
2022/08/15 07:57:06;;;;;;;2.47;2.25;;;24.60;99.90;;;;;;5093128;28;20565;-43
2022/08/15 07:59:36;;;;;;;4.45;2.28;;;24.30;99.90;;;;;;5093258;28;20169;-43
2022/08/15 08:02:24;;;;;;;5.03;2.50;;;24.20;99.90;;;;;;5074836;28;20170;-42
2022/08/15 08:04:53;;;;;;;3.20;2.33;;;24.40;99.90;;;;;;5093304;28;20180;-44
2022/08/15 08:07:41;;;;;;;2.33;2.13;;;24.30;99.90;;;;;;5106283;28;20662;-43
2022/08/15 08:10:24;;;;;;;3.70;2.38;;;24.40;99.90;;;;;;5113588;28;20564;-47
2022/08/15 08:13:20;;;;;;;4.75;2.38;;;24.50;99.90;;;;;;5113236;28;20211;-48
2022/08/15 08:16:16;;;;;;;7.05;2.75;;;24.40;99.90;;;;;;5113092;28;20168;-49
2022/08/15 08:19:07;;;;;;;4.85;2.42;;;24.40;99.90;;;;;;5104654;28;20631;-48
2022/08/15 08:21:36;;;;;;;3.70;2.47;;;24.50;99.90;;;;;;5113197;28;20622;-45
2022/08/15 08:24:12;;;;;;;2.63;2.42;;;24.40;99.90;;;;;;5094687;28;20173;-46
2022/08/15 08:26:51;;;;;;;2.88;2.30;;;24.50;99.90;;;;;;5112875;28;20700;-47
2022/08/15 08:29:20;;;;;;;4.97;2.70;;;24.50;99.90;;;;;;5112814;28;20172;-48
2022/08/15 08:32:02;;;;;;;4.68;2.38;;;24.30;99.90;;;;;;5112811;28;20579;-49
2022/08/15 08:34:47;;;;;;;3.47;2.58;;;24.40;99.90;;;;;;5113357;28;20212;-49
2022/08/15 08:37:32;;;;;;;2.85;2.60;;;24.30;99.90;;;;;;5112700;28;20157;-50
2022/08/15 08:43:49;;;;;;;4.97;3.15;;;24.10;99.90;;;;;;5112670;28;20188;-46
2022/08/15 08:46:42;;;;;;;4.63;2.70;;;24.10;99.90;;;;;;5112643;28;20626;-49
2022/08/15 08:49:46;;;;;;;3.85;2.78;;;24.20;99.90;;;;;;5112583;28;20612;-49
2022/08/15 08:52:41;;;;;;;9.07;3.08;;;24.30;99.90;;;;;;5112678;28;20240;-49
2022/08/15 08:55:26;;;;;;;5.32;3.05;;;24.50;99.90;;;;;;5112615;28;20225;-49
2022/08/15 08:58:03;;;;;;;4.15;2.60;;;24.60;99.90;;;;;;5112336;28;20251;-49
2022/08/15 09:00:50;;;;;;;5.70;3.08;;;24.30;99.90;;;;;;5112590;28;20726;-48
2022/08/15 09:03:29;;;;;;;9.43;3.30;;;24.20;99.90;;;;;;5112276;28;20207;-49
2022/08/15 09:05:57;;;;;;;6.68;3.33;;;24.40;99.90;;;;;;5112421;28;20176;-49
2022/08/15 09:08:25;;;;;;;4.70;2.95;;;24.50;99.90;;;;;;5112139;28;20157;-49
2022/08/15 09:10:54;;;;;;;5.60;3.03;;;24.60;99.90;;;;;;5112297;28;20177;-47
2022/08/15 09:13:34;;;;;;;5.82;3.80;;;24.40;99.90;;;;;;5111565;28;20280;-48
2022/08/15 09:16:14;;;;;;;9.27;3.35;;;24.30;99.90;;;;;;5112443;28;20195;-44
2022/08/15 09:19:09;;;;;;;3.70;3.05;;;24.30;99.90;;;;;;5093818;28;20364;-45
2022/08/15 09:21:35;;;;;;;7.78;3.33;;;24.20;99.90;;;;;;5111819;28;20526;-49
2022/08/15 09:24:03;;;;;;;5.63;3.50;;;24.20;99.90;;;;;;5110307;28;20184;-46
2022/08/15 09:26:59;;;;;;;4.80;3.60;;;24.30;99.90;;;;;;5112140;28;20166;-44
2022/08/15 09:29:29;;;;;;;5.07;3.50;;;24.30;99.90;;;;;;5111648;28;20165;-45
2022/08/15 09:32:22;;;;;;;5.88;3.60;;;24.20;99.90;;;;;;5111934;28;20551;-44
2022/08/15 09:35:12;;;;;;;4.22;3.00;;;24.20;99.90;;;;;;5111689;28;20229;-47
2022/08/15 09:37:48;;;;;;;5.32;2.85;;;24.30;99.90;;;;;;5111496;28;20632;-44
2022/08/15 09:40:32;;;;;;;6.22;3.33;;;24.20;99.90;;;;;;5110712;28;20168;-44
2022/08/15 09:43:10;;;;;;;4.25;3.13;;;24.30;99.90;;;;;;5112058;28;20251;-43
2022/08/15 09:46:12;;;;;;;5.93;3.60;;;24.30;99.90;;;;;;5111320;28;20171;-49
2022/08/15 09:48:44;;;;;;;7.65;3.47;;;24.30;99.90;;;;;;5079953;28;20176;-50
2022/08/15 09:51:48;;;;;;;6.28;3.95;;;24.30;99.90;;;;;;5110940;28;20694;-49
2022/08/15 09:54:21;;;;;;;5.90;3.42;;;24.50;99.90;;;;;;5111174;28;20207;-50
2022/08/15 09:56:48;;;;;;;5.05;3.05;;;24.40;99.90;;;;;;5111183;28;20157;-50
2022/08/15 09:59:15;;;;;;;4.15;2.97;;;24.30;99.90;;;;;;5111234;28;20168;-50
2022/08/15 10:01:52;;;;;;;5.45;3.63;;;24.30;99.90;;;;;;5111416;28;20169;-50
2022/08/15 10:04:23;;;;;;;7.70;3.38;;;24.20;99.90;;;;;;5111259;28;20209;-50
2022/08/15 10:06:57;;;;;;;6.30;3.47;;;24.30;99.90;;;;;;5111380;28;20245;-50
2022/08/15 10:09:31;;;;;;;5.38;3.45;;;24.70;99.90;;;;;;5111132;28;20168;-49
2022/08/15 10:12:18;;;;;;;6.88;3.78;;;24.80;99.90;;;;;;5111618;28;20254;-49
2022/08/15 10:14:53;;;;;;;4.85;3.30;;;24.90;99.90;;;;;;5089335;28;20277;-49
2022/08/15 10:17:27;;;;;;;6.03;3.60;;;25.00;99.90;;;;;;5090826;28;20179;-49
2022/08/15 10:19:54;;;;;;;7.40;3.65;;;25.00;99.90;;;;;;5090763;28;20173;-47
2022/08/15 10:22:24;;;;;;;6.25;3.72;;;24.90;99.90;;;;;;5090162;28;20160;-47
2022/08/15 10:25:28;;;;;;;4.90;3.08;;;24.90;99.90;;;;;;5090847;28;20204;-49
2022/08/15 10:28:07;;;;;;;4.53;4.13;;;24.90;99.90;;;;;;5090459;28;20165;-43
2022/08/15 10:30:41;;;;;;;4.80;3.38;;;24.80;99.90;;;;;;5090478;28;20165;-44
2022/08/15 10:33:42;;;;;;;8.07;3.88;;;24.50;99.90;;;;;;5090679;28;20216;-48
2022/08/15 10:36:14;;;;;;;6.35;3.40;;;24.50;99.90;;;;;;5090402;28;20165;-46
2022/08/15 10:38:54;;;;;;;4.63;3.60;;;24.50;99.90;;;;;;5090703;28;20169;-47
2022/08/15 10:41:52;;;;;;;4.80;3.20;;;24.50;99.90;;;;;;5090443;28;20709;-46
2022/08/15 10:44:42;;;;;;;4.53;3.15;;;24.40;99.90;;;;;;5090396;28;20169;-47
2022/08/15 10:47:32;;;;;;;5.65;3.67;;;24.20;99.90;;;;;;5090632;28;20184;-47
2022/08/15 10:50:00;;;;;;;6.35;3.42;;;24.20;99.90;;;;;;5091058;28;20197;-48
2022/08/15 10:52:43;;;;;;;8.48;3.95;;;24.30;99.90;;;;;;5094597;28;20165;-46
2022/08/15 10:55:32;;;;;;;6.95;3.70;;;24.50;99.90;;;;;;5094224;28;20192;-46
2022/08/15 10:58:09;;;;;;;9.52;3.42;;;24.50;99.90;;;;;;5094589;28;20157;-41
2022/08/15 11:00:41;;;;;;;7.70;3.75;;;24.40;99.90;;;;;;5109735;28;20169;-46
2022/08/15 11:03:35;;;;;;;5.53;3.80;;;24.30;99.90;;;;;;5109849;28;20684;-43
2022/08/15 11:06:05;;;;;;;5.88;3.30;;;24.30;99.90;;;;;;5083710;28;20318;-45
2022/08/15 11:08:31;;;;;;;7.32;3.53;;;24.40;99.90;;;;;;5109608;28;20177;-47
2022/08/15 11:11:09;;;;;;;4.65;3.47;;;24.30;99.90;;;;;;5094386;28;20169;-46
2022/08/15 11:13:37;;;;;;;7.47;4.15;;;24.20;99.90;;;;;;5102601;28;20228;-44
2022/08/15 11:16:16;;;;;;;4.05;3.40;;;24.20;99.90;;;;;;5114198;28;20164;-44
2022/08/15 11:19:19;;;;;;;7.90;3.80;;;24.10;99.90;;;;;;5113855;28;20298;-42
2022/08/15 11:21:55;;;;;;;9.20;3.65;;;24.10;99.90;;;;;;5114023;28;20210;-46
2022/08/15 11:24:33;;;;;;;4.75;3.63;;;24.00;99.90;;;;;;5114327;28;20534;-46
2022/08/15 11:27:19;;;;;;;6.05;3.55;;;24.00;99.90;;;;;;5114611;28;20172;-43
2022/08/15 11:29:48;;;;;;;4.93;3.75;;;23.90;99.90;;;;;;5114129;28;20172;-46
2022/08/15 11:32:29;;;;;;;4.82;4.07;;;23.80;99.90;;;;;;5113898;28;20196;-44
2022/08/15 11:34:56;;;;;;;5.55;3.67;;;23.90;99.90;;;;;;5111122;28;20185;-46
2022/08/15 11:37:29;;;;;;;5.50;4.13;;;23.90;99.90;;;;;;5101604;28;20192;-44
2022/08/15 11:39:58;;;;;;;6.10;4.70;;;23.80;99.90;;;;;;5092380;28;20180;-46
2022/08/15 11:42:27;;;;;;;6.53;4.18;;;24.00;99.90;;;;;;5093172;28;20168;-46
2022/08/15 11:45:05;;;;;;;5.95;4.07;;;24.00;99.90;;;;;;5092384;28;20260;-43
2022/08/15 11:47:33;;;;;;;4.72;4.05;;;24.10;99.90;;;;;;5093205;28;20253;-48
2022/08/15 11:50:03;;;;;;;9.15;4.22;;;24.20;99.90;;;;;;5093293;28;20637;-50
2022/08/15 11:52:47;;;;;;;6.35;4.35;;;24.30;99.90;;;;;;5093242;28;20173;-45
2022/08/15 11:55:30;;;;;;;5.13;3.78;;;24.40;99.90;;;;;;5093083;28;20607;-47
2022/08/15 11:58:01;;;;;;;4.45;3.63;;;24.70;99.90;;;;;;5092925;28;20640;-43
2022/08/15 12:00:52;;;;;;;8.70;4.25;;;24.90;99.90;;;;;;5092823;28;20715;-48
2022/08/15 12:03:24;;;;;;;5.13;3.85;;;25.20;99.90;;;;;;5091736;28;20245;-47
2022/08/15 12:05:53;;;;;;;7.35;4.45;;;25.30;99.90;;;;;;5092746;28;20161;-49
2022/08/15 12:08:32;;;;;;;9.55;4.38;;;25.40;99.90;;;;;;5092829;28;20190;-47
2022/08/15 12:11:13;;;;;;;4.75;3.72;;;25.40;99.90;;;;;;5092929;28;20703;-46
2022/08/15 12:14:00;;;;;;;5.32;3.58;;;26.90;99.90;;;;;;5092083;28;20695;-43
2022/08/15 12:16:45;;;;;;;3.50;3.20;;;25.40;99.90;;;;;;5092701;28;20655;-43
2022/08/15 12:19:35;;;;;;;4.80;3.65;;;25.30;99.90;;;;;;5092704;28;20574;-43
2022/08/15 12:22:10;;;;;;;3.55;3.25;;;25.60;99.90;;;;;;5092477;28;20169;-42
2022/08/15 12:24:37;;;;;;;3.65;3.20;;;25.50;99.90;;;;;;5092698;28;20176;-44
2022/08/15 12:27:06;;;;;;;3.35;3.05;;;25.30;99.90;;;;;;5092344;28;20195;-42
2022/08/15 12:29:33;;;;;;;4.88;2.88;;;25.30;99.90;;;;;;5092100;28;20217;-44
2022/08/15 12:32:00;;;;;;;3.45;3.00;;;25.20;99.90;;;;;;5074219;28;20222;-45
2022/08/15 12:34:31;;;;;;;4.32;3.25;;;25.10;99.90;;;;;;5092278;28;20287;-42
2022/08/15 12:37:04;;;;;;;3.25;2.90;;;25.20;99.90;;;;;;5092295;28;20171;-44
2022/08/15 12:39:30;;;;;;;5.65;3.20;;;25.20;99.90;;;;;;5092128;28;20161;-44
2022/08/15 12:41:56;;;;;;;3.60;3.25;;;25.30;99.90;;;;;;5092265;28;20634;-42
2022/08/15 12:44:28;;;;;;;7.78;3.65;;;25.40;99.90;;;;;;5091367;28;20181;-43
2022/08/15 12:46:55;;;;;;;6.95;3.22;;;25.50;99.90;;;;;;5091827;28;20203;-43
2022/08/15 12:49:21;;;;;;;4.03;3.28;;;25.60;99.90;;;;;;5091950;28;20187;-45
2022/08/15 12:51:47;;;;;;;3.60;3.10;;;25.60;99.90;;;;;;5091714;28;20226;-50
2022/08/15 12:54:13;;;;;;;4.43;3.33;;;25.90;99.90;;;;;;5091837;28;20216;-49
2022/08/15 12:56:42;;;;;;;3.30;3.00;;;25.80;99.90;;;;;;5091604;28;20188;-49
2022/08/15 12:59:08;;;;;;;4.55;3.38;;;25.80;99.90;;;;;;5091690;28;20667;-50
2022/08/15 13:01:35;;;;;;;4.35;3.03;;;25.90;99.90;;;;;;5091432;28;20177;-49
2022/08/15 13:04:04;;;;;;;5.43;3.70;;;26.00;99.90;;;;;;5091404;28;20175;-50
2022/08/15 13:06:29;;;;;;;4.45;3.10;;;26.10;99.90;;;;;;5092476;28;20206;-50
2022/08/15 13:08:55;;;;;;;3.47;3.17;;;26.10;99.90;;;;;;5092132;28;20160;-48
2022/08/15 13:11:25;;;;;;;3.90;3.50;;;26.30;99.90;;;;;;5091954;28;20243;-49
2022/08/15 13:13:50;;;;;;;4.72;3.50;;;26.30;99.90;;;;;;5109257;28;20272;-49
2022/08/15 13:16:17;;;;;;;3.58;3.28;;;26.60;99.90;;;;;;5111969;28;20160;-49
2022/08/15 13:18:44;;;;;;;3.17;2.90;;;26.70;99.90;;;;;;5093582;28;20180;-49
2022/08/15 13:23:54;;;;;;;6.85;3.85;;;27.30;99.90;;;;;;5111196;28;20272;-48
2022/08/15 13:26:24;;;;;;;3.65;3.30;;;27.30;99.90;;;;;;5093436;28;20247;-49
2022/08/15 13:28:53;;;;;;;3.20;3.00;;;27.30;99.90;;;;;;5111808;28;20172;-49